Time;durP1;ratioP1;P1;durP2;ratioP2;P2;SDS_P1;SDS_P2;PMS_P1;PMS_P2;Temp;Humidity;BMP_temperature;BMP_pressure;BME280_temperature;BME280_humidity;BME280_pressure;Samples;Min_cycle;Max_cycle;Signal;HPM_P1;HPM_P2
2022/05/11 00:00:45;;;;;;;6.05;3.67;;;11.80;99.90;;;;;;4998103;28;20049;-83
2022/05/11 00:03:12;;;;;;;7.03;5.53;;;12.00;99.90;;;;;;4999836;28;20049;-83
2022/05/11 00:05:39;;;;;;;7.45;5.10;;;12.00;99.90;;;;;;4979540;28;20049;-83
2022/05/11 00:08:07;;;;;;;8.43;6.70;;;12.00;99.90;;;;;;4982871;28;20048;-84
2022/05/11 00:10:35;;;;;;;8.55;6.05;;;12.00;99.90;;;;;;4999233;28;20050;-84
2022/05/11 00:13:03;;;;;;;6.53;5.15;;;12.00;99.90;;;;;;4982329;28;20046;-84
2022/05/11 00:15:30;;;;;;;6.57;5.80;;;11.90;99.90;;;;;;4979696;28;20104;-84
2022/05/11 00:17:57;;;;;;;10.70;6.60;;;11.80;99.90;;;;;;4986613;28;20050;-84
2022/05/11 00:20:24;;;;;;;10.02;7.32;;;11.80;99.90;;;;;;4995213;28;20037;-84
2022/05/11 00:22:56;;;;;;;10.07;6.60;;;11.70;99.90;;;;;;4981825;28;20457;-85
2022/05/11 00:25:25;;;;;;;9.23;6.63;;;11.60;99.90;;;;;;4975585;28;20045;-85
2022/05/11 00:27:53;;;;;;;11.57;7.38;;;11.60;99.90;;;;;;4980466;28;20050;-85
2022/05/11 00:30:21;;;;;;;9.20;7.30;;;11.50;99.90;;;;;;4978111;28;20351;-85
2022/05/11 00:32:53;;;;;;;12.10;7.75;;;11.40;99.90;;;;;;4999754;28;20634;-86
2022/05/11 00:35:20;;;;;;;13.60;9.15;;;11.40;99.90;;;;;;4992908;28;20045;-86
2022/05/11 00:37:47;;;;;;;14.50;9.15;;;11.30;99.90;;;;;;4998301;28;20045;-86
2022/05/11 00:40:16;;;;;;;12.63;8.52;;;11.30;99.90;;;;;;4999245;28;20042;-86
2022/05/11 00:42:43;;;;;;;12.80;9.37;;;11.40;99.90;;;;;;4997310;28;20061;-86
2022/05/11 00:45:11;;;;;;;13.43;10.20;;;11.40;99.90;;;;;;4980644;28;20098;-85
2022/05/11 00:47:42;;;;;;;17.27;11.23;;;11.30;99.90;;;;;;4999167;28;20049;-85
2022/05/11 00:50:23;;;;;;;17.10;10.05;;;11.30;99.90;;;;;;5001561;28;20057;-84
2022/05/11 00:52:55;;;;;;;13.32;9.93;;;11.30;99.90;;;;;;4981157;28;20104;-85
2022/05/11 00:55:37;;;;;;;15.30;12.00;;;11.20;99.90;;;;;;4995603;28;20054;-85
2022/05/11 00:58:11;;;;;;;20.55;10.40;;;11.10;99.90;;;;;;4996730;28;20076;-84
2022/05/11 01:00:39;;;;;;;13.75;10.27;;;11.10;99.90;;;;;;4997088;28;20042;-85
2022/05/11 01:03:11;;;;;;;11.50;9.25;;;11.00;99.90;;;;;;5006918;28;20045;-84
2022/05/11 01:05:40;;;;;;;12.00;9.82;;;11.00;99.90;;;;;;4999861;28;20145;-84
2022/05/11 01:08:08;;;;;;;12.30;8.88;;;11.00;99.90;;;;;;5001995;28;20049;-84
2022/05/11 01:10:35;;;;;;;12.60;8.25;;;10.90;99.90;;;;;;5001328;28;20718;-85
2022/05/11 01:13:06;;;;;;;11.63;6.57;;;10.90;99.90;;;;;;5002331;28;20116;-85
2022/05/11 01:15:33;;;;;;;14.05;8.57;;;10.90;99.90;;;;;;4999304;28;20038;-84
2022/05/11 01:18:06;;;;;;;8.90;6.97;;;10.90;99.90;;;;;;5002515;28;20399;-84
2022/05/11 01:20:35;;;;;;;10.23;7.30;;;10.90;99.90;;;;;;4997571;28;20058;-84
2022/05/11 01:23:17;;;;;;;7.90;5.25;;;11.00;99.90;;;;;;4968597;28;20049;-84
2022/05/11 01:25:44;;;;;;;10.82;6.60;;;11.10;99.90;;;;;;4981918;28;20120;-84
2022/05/11 01:28:14;;;;;;;13.85;6.50;;;11.20;99.90;;;;;;4983288;28;20049;-85
2022/05/11 01:30:48;;;;;;;10.30;6.22;;;11.40;99.90;;;;;;4999387;28;20046;-84
2022/05/11 01:33:19;;;;;;;6.97;6.13;;;11.50;99.90;;;;;;4982357;28;20048;-83
2022/05/11 01:35:49;;;;;;;8.93;6.13;;;11.70;99.90;;;;;;4980945;28;20792;-84
2022/05/11 01:38:28;;;;;;;8.10;4.90;;;11.90;99.90;;;;;;4997957;28;20546;-84
2022/05/11 01:40:56;;;;;;;8.73;5.88;;;12.00;99.90;;;;;;4985089;28;20113;-86
2022/05/11 01:43:26;;;;;;;8.75;5.10;;;12.10;99.90;;;;;;4979836;28;20088;-85
2022/05/11 01:45:53;;;;;;;6.05;5.43;;;12.20;99.90;;;;;;5001301;28;20046;-84
2022/05/11 01:48:21;;;;;;;8.35;4.78;;;12.30;99.90;;;;;;4999833;28;20065;-85
2022/05/11 01:50:48;;;;;;;7.13;5.57;;;12.30;99.90;;;;;;4983065;28;20054;-84
2022/05/11 01:53:16;;;;;;;8.18;6.13;;;12.30;99.90;;;;;;4967590;28;20120;-84
2022/05/11 01:55:43;;;;;;;5.93;4.97;;;12.30;99.90;;;;;;4999245;28;20160;-84
2022/05/11 01:58:11;;;;;;;6.82;5.78;;;12.40;99.90;;;;;;5000534;28;20053;-85
2022/05/11 02:00:41;;;;;;;9.90;5.88;;;12.30;99.90;;;;;;4999423;28;20049;-84
2022/05/11 02:03:08;;;;;;;8.77;5.97;;;12.30;99.90;;;;;;4983182;28;20058;-84
2022/05/11 02:08:22;;;;;;;9.50;6.30;;;12.20;99.90;;;;;;4999687;28;20525;-84
2022/05/11 02:10:49;;;;;;;10.27;6.32;;;12.00;99.90;;;;;;4982691;28;20104;-84
2022/05/11 02:13:16;;;;;;;9.23;6.70;;;11.90;99.90;;;;;;4999734;28;20081;-84
2022/05/11 02:15:43;;;;;;;6.55;5.95;;;11.80;99.90;;;;;;4977464;28;20038;-84
2022/05/11 02:18:11;;;;;;;9.52;6.53;;;11.80;99.90;;;;;;4999522;28;20442;-84
2022/05/11 02:20:38;;;;;;;6.95;5.97;;;11.70;99.90;;;;;;4982141;28;20690;-83
2022/05/11 02:23:05;;;;;;;8.88;6.82;;;11.70;99.90;;;;;;4983297;28;20371;-84
2022/05/11 02:25:32;;;;;;;9.70;7.50;;;11.60;99.90;;;;;;4980559;28;20137;-83
2022/05/11 02:27:59;;;;;;;10.25;6.80;;;11.50;99.90;;;;;;4999880;28;20716;-83
2022/05/11 02:30:29;;;;;;;9.32;6.38;;;11.40;99.90;;;;;;4997796;28;20116;-83
2022/05/11 02:32:56;;;;;;;;;;;11.40;99.90;;;;;;4999168;28;20042;-84
2022/05/11 02:35:24;;;;;;;9.00;7.18;;;11.30;99.90;;;;;;4979291;28;20019;-81
2022/05/11 02:37:55;;;;;;;13.55;7.40;;;11.30;99.90;;;;;;4994657;28;20794;-82
2022/05/11 02:40:25;;;;;;;8.50;7.60;;;11.30;99.90;;;;;;4996402;28;20045;-81
2022/05/11 02:42:53;;;;;;;9.13;8.10;;;11.40;99.90;;;;;;4982434;28;20042;-81
2022/05/11 02:45:22;;;;;;;11.48;7.85;;;11.40;99.90;;;;;;4982428;28;20414;-81
2022/05/11 02:47:51;;;;;;;13.60;9.20;;;11.50;99.90;;;;;;4995865;28;20778;-81
2022/05/11 02:50:25;;;;;;;17.80;8.77;;;11.60;99.90;;;;;;4998687;28;20069;-81
2022/05/11 02:52:53;;;;;;;8.80;7.47;;;11.60;99.90;;;;;;4998095;28;20679;-82
2022/05/11 02:55:20;;;;;;;9.82;6.63;;;11.60;99.90;;;;;;4999558;28;20147;-81
2022/05/11 02:57:48;;;;;;;10.52;7.70;;;11.70;99.90;;;;;;4981561;28;20489;-83
2022/05/11 03:00:19;;;;;;;8.45;7.45;;;11.70;99.90;;;;;;4980966;28;20152;-81
2022/05/11 03:02:46;;;;;;;9.95;7.65;;;11.70;99.90;;;;;;4982167;28;20148;-81
2022/05/11 03:05:14;;;;;;;10.80;8.20;;;11.70;99.90;;;;;;4981879;28;20049;-81
2022/05/11 03:07:41;;;;;;;7.72;7.03;;;11.70;99.90;;;;;;4999141;28;20049;-80
2022/05/11 03:10:09;;;;;;;9.75;8.13;;;11.70;99.90;;;;;;4978360;28;20050;-82
2022/05/11 03:12:37;;;;;;;9.60;8.00;;;11.70;99.90;;;;;;4981471;28;20045;-81
2022/05/11 03:15:06;;;;;;;12.07;8.35;;;11.70;99.90;;;;;;4980890;28;20112;-81
2022/05/11 03:17:34;;;;;;;11.18;7.93;;;11.80;99.90;;;;;;4997875;28;20133;-82
2022/05/11 03:20:03;;;;;;;9.25;8.35;;;11.70;99.90;;;;;;4981756;28;20352;-81
2022/05/11 03:22:30;;;;;;;10.65;7.70;;;11.70;99.90;;;;;;4999883;28;20054;-83
2022/05/11 03:24:57;;;;;;;9.25;8.35;;;11.70;99.90;;;;;;4981754;28;20051;-81
2022/05/11 03:27:23;;;;;;;11.13;7.32;;;11.60;99.90;;;;;;4994748;28;20105;-81
2022/05/11 03:29:51;;;;;;;9.88;7.60;;;11.60;99.90;;;;;;4997367;28;20486;-81
2022/05/11 03:35:05;;;;;;;10.40;7.55;;;11.50;99.90;;;;;;4997341;28;20050;-81
2022/05/11 03:37:33;;;;;;;12.18;8.55;;;11.40;99.90;;;;;;4977173;28;20430;-81
2022/05/11 03:40:01;;;;;;;11.63;9.02;;;11.40;99.90;;;;;;4996552;28;20081;-81
2022/05/11 03:42:32;;;;;;;11.23;9.27;;;11.30;99.90;;;;;;5002258;28;20080;-81
2022/05/11 03:45:11;;;;;;;12.52;8.35;;;11.30;99.90;;;;;;4998138;28;20054;-81
2022/05/11 03:47:38;;;;;;;11.02;8.32;;;11.20;99.90;;;;;;4997704;28;20541;-81
2022/05/11 03:50:07;;;;;;;9.80;7.90;;;11.10;99.90;;;;;;4996197;28;20442;-81
2022/05/11 03:52:35;;;;;;;11.45;7.93;;;11.10;99.90;;;;;;4977213;28;20434;-81
2022/05/11 03:55:03;;;;;;;12.32;8.30;;;11.00;99.90;;;;;;4965332;28;20094;-82
2022/05/11 03:57:32;;;;;;;13.32;9.73;;;11.00;99.90;;;;;;4995888;28;20105;-82
2022/05/11 03:59:59;;;;;;;14.57;8.68;;;11.00;99.90;;;;;;4979826;28;20384;-81
2022/05/11 04:02:25;;;;;;;11.90;8.35;;;10.90;99.90;;;;;;4982070;28;20057;-82
2022/05/11 04:04:53;;;;;;;9.80;8.90;;;10.80;99.90;;;;;;4999016;28;20052;-81
2022/05/11 04:07:20;;;;;;;10.65;8.25;;;10.70;99.90;;;;;;4998543;28;20050;-82
2022/05/11 04:09:46;;;;;;;12.48;8.43;;;10.60;99.90;;;;;;4995616;28;20051;-81
2022/05/11 04:12:15;;;;;;;12.18;8.55;;;10.50;99.90;;;;;;4979939;28;20443;-81
2022/05/11 04:14:43;;;;;;;13.38;10.52;;;10.50;99.90;;;;;;4980966;28;20054;-81
2022/05/11 04:17:10;;;;;;;11.50;8.00;;;10.40;99.90;;;;;;4998468;28;20648;-81
2022/05/11 04:19:37;;;;;;;10.20;9.20;;;10.40;99.90;;;;;;4976771;28;20049;-81
2022/05/11 04:22:04;;;;;;;11.00;8.43;;;10.30;99.90;;;;;;4980880;28;20108;-81
2022/05/11 04:24:31;;;;;;;9.10;8.15;;;10.30;99.90;;;;;;4998142;28;20136;-81
2022/05/11 04:26:59;;;;;;;10.45;7.97;;;10.30;99.90;;;;;;4998345;28;20514;-81
2022/05/11 04:29:26;;;;;;;11.77;7.15;;;10.30;99.90;;;;;;4992186;28;20057;-81
2022/05/11 04:31:55;;;;;;;9.85;8.90;;;10.30;99.90;;;;;;4980346;28;20052;-81
2022/05/11 04:34:24;;;;;;;10.15;7.28;;;10.30;99.90;;;;;;4995970;28;20061;-83
2022/05/11 04:36:51;;;;;;;10.52;8.35;;;10.40;99.90;;;;;;4999600;28;20107;-81
2022/05/11 04:39:18;;;;;;;10.93;7.68;;;10.40;99.90;;;;;;5000617;28;20046;-81
2022/05/11 04:41:45;;;;;;;10.95;6.72;;;10.40;99.90;;;;;;4998591;28;20084;-81
2022/05/11 04:44:12;;;;;;;10.07;7.88;;;10.50;99.90;;;;;;4998999;28;20046;-81
2022/05/11 04:46:39;;;;;;;8.48;7.55;;;10.60;99.90;;;;;;4999757;28;20780;-81
2022/05/11 04:49:23;;;;;;;11.98;8.98;;;10.60;99.90;;;;;;4979029;28;20146;-81
2022/05/11 04:51:59;;;;;;;9.32;7.07;;;10.60;99.90;;;;;;4996422;28;20137;-81
2022/05/11 04:54:27;;;;;;;8.25;7.07;;;10.50;99.90;;;;;;4992455;28;20041;-81
2022/05/11 04:56:53;;;;;;;9.95;7.15;;;10.40;99.90;;;;;;4991136;28;20037;-81
2022/05/11 04:59:22;;;;;;;8.50;7.70;;;10.30;99.90;;;;;;4992585;28;20053;-81
2022/05/11 05:01:49;;;;;;;13.27;7.88;;;10.20;99.90;;;;;;4981478;28;20499;-81
2022/05/11 05:04:16;;;;;;;10.60;7.85;;;10.10;99.90;;;;;;4988711;28;20053;-81
2022/05/11 05:06:43;;;;;;;7.22;6.38;;;10.10;99.90;;;;;;4975534;28;20053;-81
2022/05/11 05:09:10;;;;;;;8.40;7.55;;;10.10;99.90;;;;;;4980721;28;20471;-80
2022/05/11 05:11:37;;;;;;;9.10;7.55;;;10.00;99.90;;;;;;4952711;28;20396;-80
2022/05/11 05:14:06;;;;;;;8.63;7.30;;;10.00;99.90;;;;;;4993191;28;20063;-81
2022/05/11 05:16:34;;;;;;;7.25;6.38;;;9.90;99.90;;;;;;4985330;28;20140;-81
2022/05/11 05:19:03;;;;;;;8.48;6.45;;;9.90;99.90;;;;;;4994045;28;20042;-81
2022/05/11 05:21:31;;;;;;;6.72;5.97;;;9.80;99.90;;;;;;4976864;28;20046;-81
2022/05/11 05:23:59;;;;;;;8.15;5.47;;;9.80;99.90;;;;;;4995781;28;20419;-81
2022/05/11 05:26:26;;;;;;;7.65;5.72;;;9.80;99.90;;;;;;4984845;28;20084;-81
2022/05/11 05:31:39;;;;;;;8.20;6.15;;;9.80;99.90;;;;;;4994529;28;20046;-81
2022/05/11 05:34:06;;;;;;;6.68;5.47;;;9.80;99.90;;;;;;4985256;28;20120;-81
2022/05/11 05:36:39;;;;;;;8.25;5.30;;;9.70;99.90;;;;;;4983673;28;20046;-81
2022/05/11 05:39:06;;;;;;;10.52;5.53;;;9.70;99.90;;;;;;4999067;28;20510;-80
2022/05/11 05:41:33;;;;;;;8.55;5.47;;;9.70;99.90;;;;;;4999933;28;20130;-81
2022/05/11 05:44:00;;;;;;;9.95;5.90;;;9.70;99.90;;;;;;4997031;28;20042;-81
2022/05/11 05:46:27;;;;;;;10.88;6.50;;;9.60;99.90;;;;;;4999877;28;20498;-81
2022/05/11 05:48:55;;;;;;;8.20;5.93;;;9.60;99.90;;;;;;4985180;28;20749;-80
2022/05/11 05:51:23;;;;;;;19.10;6.63;;;9.60;99.90;;;;;;4971151;28;20045;-81
2022/05/11 05:53:51;;;;;;;7.15;6.38;;;9.70;99.90;;;;;;4981308;28;20061;-81
2022/05/11 05:56:19;;;;;;;7.05;6.20;;;9.70;99.90;;;;;;4999080;28;20141;-81
2022/05/11 05:58:46;;;;;;;8.50;5.03;;;9.70;99.90;;;;;;4982101;28;20050;-80
2022/05/11 06:01:14;;;;;;;6.78;5.90;;;9.70;99.90;;;;;;4985319;28;20030;-80
2022/05/11 06:03:42;;;;;;;9.43;5.50;;;9.80;99.90;;;;;;4996512;28;20042;-81
2022/05/11 06:06:09;;;;;;;11.90;5.72;;;9.90;99.90;;;;;;5001412;28;20049;-81
2022/05/11 06:08:38;;;;;;;9.20;5.82;;;9.90;99.90;;;;;;4990182;28;20081;-81
2022/05/11 06:11:06;;;;;;;6.25;4.70;;;9.90;99.90;;;;;;5004081;28;20084;-82
2022/05/11 06:13:34;;;;;;;5.45;4.82;;;10.00;99.90;;;;;;4981950;28;20448;-82
2022/05/11 06:16:02;;;;;;;10.90;5.40;;;10.00;99.90;;;;;;4993678;28;20049;-81
2022/05/11 06:18:29;;;;;;;11.20;4.60;;;10.00;99.90;;;;;;4979375;28;20042;-82
2022/05/11 06:20:56;;;;;;;8.50;5.50;;;10.00;99.90;;;;;;4981971;28;20096;-82
2022/05/11 06:23:24;;;;;;;6.03;5.40;;;10.00;99.90;;;;;;4997558;28;20038;-82
2022/05/11 06:25:51;;;;;;;6.05;4.50;;;10.00;99.90;;;;;;4997034;28;20041;-82
2022/05/11 06:28:19;;;;;;;4.82;3.85;;;10.10;99.90;;;;;;4981208;28;20409;-82
2022/05/11 06:31:07;;;;;;;9.20;4.85;;;10.10;99.90;;;;;;4998514;28;20534;-82
2022/05/11 06:33:41;;;;;;;8.55;5.03;;;10.10;99.90;;;;;;5003943;28;20802;-83
2022/05/11 06:36:09;;;;;;;8.68;5.15;;;10.20;99.90;;;;;;5000172;28;20060;-81
2022/05/11 06:38:36;;;;;;;6.00;5.07;;;10.20;99.90;;;;;;5000508;28;20421;-82
2022/05/11 06:41:24;;;;;;;9.90;4.68;;;10.30;99.90;;;;;;4984002;28;20046;-82
2022/05/11 06:43:52;;;;;;;7.50;4.20;;;10.30;99.90;;;;;;5001835;28;20038;-82
2022/05/11 06:46:19;;;;;;;7.35;4.25;;;10.30;99.90;;;;;;4999036;28;20082;-82
2022/05/11 06:48:47;;;;;;;6.05;4.50;;;10.40;99.90;;;;;;5004718;28;20069;-82
2022/05/11 06:51:16;;;;;;;6.53;4.30;;;10.40;99.90;;;;;;4983215;28;20117;-82
2022/05/11 06:59:21;;;;;;;5.80;5.22;;;10.40;99.90;;;;;;5004717;28;20058;-82
2022/05/11 07:01:49;;;;;;;8.38;4.35;;;10.30;99.90;;;;;;4981420;28;20127;-82
2022/05/11 07:04:16;;;;;;;8.30;3.67;;;10.30;99.90;;;;;;5001855;28;20106;-82
2022/05/11 07:06:44;;;;;;;7.32;4.93;;;10.40;99.90;;;;;;5004370;28;20068;-82
2022/05/11 07:09:11;;;;;;;5.10;3.75;;;10.30;99.90;;;;;;5001879;28;20085;-81
2022/05/11 07:14:24;;;;;;;4.63;3.28;;;10.40;99.90;;;;;;4988834;28;20104;-82
2022/05/11 07:16:51;;;;;;;6.07;3.85;;;10.40;99.90;;;;;;4998994;28;20081;-81
2022/05/11 07:19:21;;;;;;;7.68;4.05;;;10.50;99.90;;;;;;4981290;28;20266;-82
2022/05/11 07:21:52;;;;;;;7.13;3.47;;;10.50;99.90;;;;;;5000303;28;20471;-81
2022/05/11 07:24:19;;;;;;;7.85;4.10;;;10.60;99.90;;;;;;4997535;28;20649;-81
2022/05/11 07:26:46;;;;;;;10.05;4.00;;;10.60;99.90;;;;;;4980219;28;20538;-81
2022/05/11 07:29:14;;;;;;;7.60;3.95;;;10.50;99.90;;;;;;4966078;28;20049;-82
2022/05/11 07:31:42;;;;;;;7.00;4.30;;;10.50;99.90;;;;;;4980370;28;20116;-81
2022/05/11 07:34:09;;;;;;;4.35;3.92;;;10.50;99.90;;;;;;4999655;28;20057;-82
2022/05/11 07:36:36;;;;;;;6.65;4.22;;;10.50;99.90;;;;;;4980840;28;20473;-82
2022/05/11 07:39:03;;;;;;;9.85;4.55;;;10.50;99.90;;;;;;5001067;28;20033;-82
2022/05/11 07:41:30;;;;;;;6.03;4.20;;;10.50;99.90;;;;;;4977917;28;20510;-82
2022/05/11 07:43:57;;;;;;;7.53;4.32;;;10.50;99.90;;;;;;4984763;28;20069;-81
2022/05/11 07:46:28;;;;;;;8.68;4.88;;;10.50;99.90;;;;;;4997313;28;20116;-81
2022/05/11 07:48:55;;;;;;;6.93;4.25;;;10.50;99.90;;;;;;4980436;28;20077;-81
2022/05/11 07:51:22;;;;;;;8.55;4.88;;;10.50;99.90;;;;;;4996344;28;20046;-82
2022/05/11 07:53:49;;;;;;;8.73;4.63;;;10.50;99.90;;;;;;5000290;28;20124;-82
2022/05/11 08:01:48;;;;;;;6.50;3.97;;;10.80;99.90;;;;;;4986104;28;20068;-82
2022/05/11 08:04:15;;;;;;;8.05;4.07;;;10.90;99.90;;;;;;5003421;28;20046;-83
2022/05/11 08:06:42;;;;;;;5.20;4.20;;;10.90;99.90;;;;;;4997463;28;20054;-82
2022/05/11 08:09:09;;;;;;;7.30;4.15;;;10.90;99.90;;;;;;4983079;28;20046;-82
2022/05/11 08:11:36;;;;;;;5.50;4.60;;;11.00;99.90;;;;;;5001414;28;20522;-82
2022/05/11 08:14:03;;;;;;;7.57;4.03;;;11.10;99.90;;;;;;5006863;28;20050;-82
2022/05/11 08:16:30;;;;;;;4.13;3.83;;;11.20;99.90;;;;;;4986359;28;20058;-82
2022/05/11 08:18:57;;;;;;;6.75;3.80;;;11.40;99.90;;;;;;4982001;28;20571;-82
2022/05/11 08:21:25;;;;;;;7.70;3.67;;;11.50;99.90;;;;;;4996116;28;20043;-82
2022/05/11 08:23:52;;;;;;;5.10;3.97;;;11.50;99.90;;;;;;5000989;28;20128;-82
2022/05/11 08:26:19;;;;;;;7.13;3.30;;;11.70;99.90;;;;;;5004054;28;20049;-82
2022/05/11 08:28:46;;;;;;;8.15;6.13;;;11.90;99.90;;;;;;5003245;28;20561;-82
2022/05/11 08:33:59;;;;;;;5.95;3.72;;;12.10;99.90;;;;;;4981520;28;20166;-82
2022/05/11 08:36:41;;;;;;;4.82;3.95;;;12.30;99.90;;;;;;5004821;28;20052;-82
2022/05/11 08:39:08;;;;;;;6.97;4.38;;;12.30;99.90;;;;;;5005761;28;20129;-82
2022/05/11 08:41:51;;;;;;;6.35;4.82;;;12.50;99.90;;;;;;4999871;28;20553;-83
2022/05/11 08:44:33;;;;;;;6.63;4.00;;;12.50;99.90;;;;;;4986431;28;20494;-82
2022/05/11 08:47:43;;;;;;;8.40;4.15;;;12.50;99.90;;;;;;4979618;28;20399;-82
2022/05/11 08:50:20;;;;;;;5.97;3.88;;;12.60;99.90;;;;;;4963961;28;20078;-82
2022/05/11 08:52:50;;;;;;;6.63;3.38;;;12.70;99.90;;;;;;4967398;28;20137;-82
2022/05/11 08:55:45;;;;;;;7.60;4.40;;;12.70;99.90;;;;;;4986486;28;20050;-82
2022/05/11 08:58:20;;;;;;;8.38;4.93;;;12.80;99.90;;;;;;4986842;28;20060;-81
2022/05/11 09:00:49;;;;;;;6.05;3.20;;;13.00;99.90;;;;;;4983923;28;20054;-82
2022/05/11 09:03:44;;;;;;;6.00;3.30;;;12.90;99.90;;;;;;5005438;28;20504;-82
2022/05/11 09:06:27;;;;;;;4.57;3.00;;;12.90;99.90;;;;;;4981672;28;20450;-84
2022/05/11 09:08:56;;;;;;;4.15;3.78;;;12.90;99.90;;;;;;4986078;28;20045;-84
2022/05/11 09:11:27;;;;;;;6.53;4.05;;;12.90;99.90;;;;;;4997865;28;20467;-86
2022/05/11 09:13:58;;;;;;;4.57;2.78;;;12.80;99.90;;;;;;5006638;28;20050;-83
2022/05/11 09:16:48;;;;;;;7.70;3.53;;;12.80;99.90;;;;;;5003245;28;20057;-84
2022/05/11 09:19:19;;;;;;;;;;;12.90;99.90;;;;;;4983684;28;20062;-84
2022/05/11 09:22:06;;;;;;;7.10;3.70;;;13.00;99.90;;;;;;5003817;28;20385;-83
2022/05/11 09:25:20;;;;;;;5.70;3.22;;;13.10;99.90;;;;;;4992441;28;20053;-83
2022/05/11 09:27:49;;;;;;;6.50;3.05;;;13.30;99.90;;;;;;4964297;28;20125;-84
2022/05/11 09:30:25;;;;;;;5.85;3.92;;;13.50;99.90;;;;;;4992561;28;20300;-83
2022/05/11 09:33:13;;;;;;;9.40;3.63;;;13.40;99.90;;;;;;4986841;28;20479;-83
2022/05/11 09:35:41;;;;;;;10.43;3.47;;;13.60;99.90;;;;;;4981823;28;20058;-83
2022/05/11 09:38:34;;;;;;;4.03;2.70;;;13.80;99.90;;;;;;4984832;28;20059;-83
2022/05/11 09:41:20;;;;;;;10.95;3.13;;;13.80;99.90;;;;;;4962817;28;20049;-82
2022/05/11 09:43:50;;;;;;;4.32;2.90;;;14.00;99.90;;;;;;4995477;28;20393;-83
2022/05/11 09:46:26;;;;;;;;;;;14.10;99.90;;;;;;4996624;28;20060;-82
2022/05/11 09:49:15;;;;;;;7.90;3.05;;;14.30;99.90;;;;;;4980241;28;19930;-83
2022/05/11 09:51:53;;;;;;;7.00;2.63;;;14.40;99.90;;;;;;4982714;28;20050;-82
2022/05/11 09:54:38;;;;;;;9.82;3.90;;;14.40;99.90;;;;;;4978469;28;20046;-82
2022/05/11 09:57:08;;;;;;;4.65;2.47;;;14.70;99.90;;;;;;4997249;28;20398;-82
2022/05/11 09:59:45;;;;;;;7.45;3.00;;;14.70;99.90;;;;;;5003360;28;20042;-82
2022/05/11 10:02:35;;;;;;;10.52;3.22;;;14.80;99.90;;;;;;4980046;28;20054;-82
2022/05/11 10:05:08;;;;;;;;;;;15.00;99.90;;;;;;5000514;28;20037;-82
2022/05/11 10:07:49;;;;;;;8.18;3.30;;;14.90;99.90;;;;;;4992028;28;19925;-83
2022/05/11 10:11:00;;;;;;;4.10;3.08;;;14.80;99.90;;;;;;4986859;28;20046;-82
2022/05/11 10:13:56;;;;;;;8.25;3.05;;;14.80;99.90;;;;;;4977504;28;20503;-83
2022/05/11 10:22:25;;;;;;;6.65;3.17;;;15.00;99.90;;;;;;4989303;28;20515;-82
2022/05/11 10:25:01;;;;;;;5.18;3.33;;;15.00;99.90;;;;;;4995015;28;20049;-82
2022/05/11 10:27:51;;;;;;;4.80;2.65;;;15.00;99.90;;;;;;4965020;28;20057;-82
2022/05/11 10:30:42;;;;;;;4.35;2.60;;;15.10;99.90;;;;;;5007685;28;20137;-82
2022/05/11 10:33:47;;;;;;;6.28;3.38;;;15.20;99.90;;;;;;4989114;28;20572;-83
2022/05/11 10:36:38;;;;;;;3.85;2.60;;;15.30;99.90;;;;;;4987669;28;20112;-82
2022/05/11 10:39:42;;;;;;;5.97;2.83;;;15.30;99.90;;;;;;4999919;28;20414;-82
2022/05/11 10:42:20;;;;;;;4.40;2.22;;;15.50;99.90;;;;;;4971727;28;20130;-83
2022/05/11 10:44:54;;;;;;;7.07;2.90;;;15.50;99.90;;;;;;5000450;28;20168;-83
2022/05/11 10:47:33;;;;;;;7.38;3.10;;;15.60;99.90;;;;;;5002006;28;20998;-82
2022/05/11 10:50:15;;;;;;;4.90;2.20;;;15.80;99.90;;;;;;4982976;28;20050;-82
2022/05/11 10:53:09;;;;;;;7.78;2.70;;;15.80;99.90;;;;;;5003680;28;20046;-82
2022/05/11 10:55:53;;;;;;;4.43;2.35;;;16.00;99.90;;;;;;4995792;28;20487;-82
2022/05/11 10:58:23;;;;;;;2.97;2.35;;;16.10;99.90;;;;;;4977803;28;20062;-82
2022/05/11 11:01:04;;;;;;;5.00;3.58;;;16.10;99.90;;;;;;4999083;28;20107;-82
2022/05/11 11:03:52;;;;;;;7.00;3.85;;;16.10;99.90;;;;;;4993932;28;20089;-82
2022/05/11 11:10:04;;;;;;;7.15;2.83;;;15.90;99.90;;;;;;4982469;28;20064;-81
2022/05/11 11:12:39;;;;;;;4.03;2.65;;;16.10;99.90;;;;;;4973518;28;20081;-81
2022/05/11 11:15:12;;;;;;;4.35;3.55;;;16.20;99.90;;;;;;4997212;28;20050;-82
2022/05/11 11:17:42;;;;;;;3.95;2.17;;;16.40;99.90;;;;;;4978953;28;20045;-82
2022/05/11 11:20:11;;;;;;;2.22;1.75;;;16.70;99.90;;;;;;5000763;28;20582;-82
2022/05/11 11:23:02;;;;;;;7.13;2.42;;;16.80;99.90;;;;;;5001492;28;20042;-82
2022/05/11 11:25:44;;;;;;;;;;;17.00;99.90;;;;;;4981810;28;20140;-83
2022/05/11 11:28:15;;;;;;;4.22;1.98;;;17.00;99.90;;;;;;4985579;28;19929;-82
2022/05/11 11:31:05;;;;;;;4.97;2.20;;;16.80;99.90;;;;;;5008638;28;20060;-82
2022/05/11 11:33:39;;;;;;;7.68;2.47;;;17.10;99.90;;;;;;4980828;28;20490;-81
2022/05/11 11:36:18;;;;;;;2.75;2.25;;;17.10;99.90;;;;;;4997370;28;20046;-82
2022/05/11 11:38:48;;;;;;;6.25;2.50;;;17.10;99.90;;;;;;5005318;28;20072;-82
2022/05/11 11:41:21;;;;;;;3.13;2.60;;;17.30;99.90;;;;;;4980957;28;20352;-82
2022/05/11 11:44:03;;;;;;;3.53;2.55;;;17.30;99.90;;;;;;4979564;28;20045;-82
2022/05/11 11:46:44;;;;;;;3.15;1.98;;;17.40;99.90;;;;;;4961579;28;20131;-82
2022/05/11 11:49:18;;;;;;;4.80;2.63;;;17.50;99.90;;;;;;4998959;28;20077;-81
2022/05/11 11:51:52;;;;;;;4.35;2.10;;;17.40;99.90;;;;;;4985703;28;20488;-81
2022/05/11 11:54:37;;;;;;;4.15;3.00;;;17.70;99.90;;;;;;4998600;28;20041;-81
2022/05/11 11:57:04;;;;;;;4.55;2.10;;;17.70;99.90;;;;;;4980829;28;20822;-81
2022/05/11 11:59:38;;;;;;;4.72;2.85;;;17.90;99.90;;;;;;4999933;28;20049;-81
2022/05/11 12:02:31;;;;;;;4.18;2.58;;;18.10;99.90;;;;;;5006873;28;20129;-80
2022/05/11 12:05:04;;;;;;;5.22;2.20;;;18.10;99.90;;;;;;5010366;28;20552;-79
2022/05/11 12:16:22;;;;;;;6.15;2.72;;;18.00;99.90;;;;;;5001372;28;20382;-80
2022/05/11 12:18:49;;;;;;;8.63;2.90;;;17.90;99.90;;;;;;5003052;28;20125;-80
2022/05/11 12:21:30;;;;;;;5.43;1.88;;;18.00;99.90;;;;;;5003201;28;20899;-80
2022/05/11 12:24:01;;;;;;;5.88;1.52;;;18.00;99.90;;;;;;4983861;28;20046;-81
2022/05/11 12:26:34;;;;;;;6.30;2.47;;;18.10;99.90;;;;;;4998258;28;20056;-81
2022/05/11 12:32:07;;;;;;;5.55;2.25;;;18.20;99.90;;;;;;5001840;28;20403;-81
2022/05/11 12:34:46;;;;;;;3.70;1.60;;;18.00;99.90;;;;;;5005622;28;20054;-81
2022/05/11 12:37:23;;;;;;;4.93;2.22;;;18.10;99.90;;;;;;5005358;28;20120;-81
2022/05/11 12:40:18;;;;;;;5.43;2.38;;;18.20;99.90;;;;;;5005123;28;20046;-81
2022/05/11 12:42:48;;;;;;;2.60;1.63;;;18.10;99.90;;;;;;5002521;28;20783;-80
2022/05/11 12:45:19;;;;;;;2.90;1.83;;;17.70;99.90;;;;;;4981176;28;20692;-81
2022/05/11 12:47:51;;;;;;;;;;;17.60;99.90;;;;;;4980259;28;20049;-80
2022/05/11 12:50:26;;;;;;;1.75;1.65;;;17.40;99.90;;;;;;4997574;28;19980;-81
2022/05/11 12:53:04;;;;;;;2.58;1.55;;;17.30;99.90;;;;;;5000225;28;20972;-81
2022/05/11 12:55:35;;;;;;;6.90;2.35;;;17.20;99.90;;;;;;4998967;28;20050;-80
2022/05/11 12:58:04;;;;;;;5.20;2.17;;;17.30;99.90;;;;;;5009635;28;20056;-80
2022/05/11 13:00:33;;;;;;;8.00;2.42;;;17.40;99.90;;;;;;4988299;28;21061;-81
2022/05/11 13:03:21;;;;;;;6.03;2.47;;;17.40;99.90;;;;;;5008278;28;20423;-80
2022/05/11 13:05:49;;;;;;;7.78;2.38;;;17.20;99.90;;;;;;4996185;28;20367;-81
2022/05/11 13:08:16;;;;;;;3.38;1.92;;;17.20;99.90;;;;;;5011599;28;20137;-80
2022/05/11 13:10:45;;;;;;;6.15;2.15;;;17.00;99.90;;;;;;4991279;28;20057;-80
2022/05/11 13:13:22;;;;;;;10.05;4.20;;;16.90;99.90;;;;;;5007345;28;20058;-80
2022/05/11 13:15:49;;;;;;;5.60;2.85;;;17.00;99.90;;;;;;5007944;28;20114;-80
2022/05/11 13:18:27;;;;;;;3.45;3.03;;;16.90;99.90;;;;;;5009212;28;20041;-80
2022/05/11 13:21:00;;;;;;;4.53;2.38;;;16.80;99.90;;;;;;4986710;28;20053;-80
2022/05/11 13:23:37;;;;;;;5.55;2.33;;;16.60;99.90;;;;;;4990596;28;20366;-80
2022/05/11 13:26:07;;;;;;;5.32;2.45;;;16.60;99.90;;;;;;5006165;28;20046;-80
2022/05/11 13:28:56;;;;;;;2.42;1.90;;;16.60;99.90;;;;;;5010176;28;20049;-80
2022/05/11 13:31:28;;;;;;;4.90;2.08;;;16.70;99.90;;;;;;5001606;28;20050;-80
2022/05/11 13:33:57;;;;;;;4.63;2.00;;;16.60;99.90;;;;;;5003447;28;20049;-80
2022/05/11 13:36:26;;;;;;;3.15;2.33;;;16.70;99.90;;;;;;5010368;28;20053;-80
2022/05/11 13:39:28;;;;;;;8.90;2.63;;;16.60;99.90;;;;;;5004497;28;20037;-80
2022/05/11 13:42:20;;;;;;;6.63;2.95;;;16.60;99.90;;;;;;4970495;28;20124;-80
2022/05/11 13:44:56;;;;;;;5.32;2.70;;;16.60;99.90;;;;;;4966808;28;20125;-80
2022/05/11 13:50:30;;;;;;;4.13;2.60;;;16.50;99.90;;;;;;4990140;28;20064;-80
2022/05/11 13:53:11;;;;;;;7.68;2.78;;;16.60;99.90;;;;;;5010760;28;20152;-79
2022/05/11 13:55:44;;;;;;;7.72;2.90;;;16.60;99.90;;;;;;5006976;28;20351;-79
2022/05/11 13:58:41;;;;;;;5.72;2.45;;;16.70;99.90;;;;;;4980636;28;20057;-80
2022/05/11 14:01:13;;;;;;;3.78;2.05;;;16.60;99.90;;;;;;4991205;28;20379;-80